sensor_id;sensor_type;location;lat;lon;timestamp;pressure;altitude;pressure_sealevel;temperature;humidity
27334;BME280;14817;57.104;-2.094;2023-05-29T00:01:38;102006.72;;;8.51;100.00
27334;BME280;14817;57.104;-2.094;2023-05-29T00:04:06;102002.00;;;8.42;100.00
27334;BME280;14817;57.104;-2.094;2023-05-29T00:06:33;102002.00;;;8.42;100.00
27334;BME280;14817;57.104;-2.094;2023-05-29T00:09:00;101995.88;;;8.39;100.00
27334;BME280;14817;57.104;-2.094;2023-05-29T00:11:27;101992.66;;;8.34;100.00
27334;BME280;14817;57.104;-2.094;2023-05-29T00:13:54;101998.00;;;8.34;100.00
27334;BME280;14817;57.104;-2.094;2023-05-29T00:16:21;101997.06;;;8.21;100.00
27334;BME280;14817;57.104;-2.094;2023-05-29T00:18:48;101997.81;;;8.23;100.00
27334;BME280;14817;57.104;-2.094;2023-05-29T00:21:15;101992.09;;;8.29;100.00
27334;BME280;14817;57.104;-2.094;2023-05-29T00:23:42;101994.97;;;8.26;100.00
27334;BME280;14817;57.104;-2.094;2023-05-29T00:26:11;102002.31;;;8.23;100.00
27334;BME280;14817;57.104;-2.094;2023-05-29T00:28:41;102003.06;;;8.25;100.00
27334;BME280;14817;57.104;-2.094;2023-05-29T00:31:08;102007.25;;;8.29;100.00
27334;BME280;14817;57.104;-2.094;2023-05-29T00:33:35;102004.28;;;8.33;100.00
27334;BME280;14817;57.104;-2.094;2023-05-29T00:36:02;102008.50;;;8.23;100.00
27334;BME280;14817;57.104;-2.094;2023-05-29T00:38:28;102011.69;;;8.15;100.00
27334;BME280;14817;57.104;-2.094;2023-05-29T00:40:55;102002.66;;;8.04;100.00
27334;BME280;14817;57.104;-2.094;2023-05-29T00:43:22;102004.31;;;7.92;100.00
27334;BME280;14817;57.104;-2.094;2023-05-29T00:45:49;102006.09;;;7.91;100.00
27334;BME280;14817;57.104;-2.094;2023-05-29T00:48:17;101999.22;;;8.02;100.00
27334;BME280;14817;57.104;-2.094;2023-05-29T00:50:44;102002.66;;;8.04;100.00
27334;BME280;14817;57.104;-2.094;2023-05-29T00:53:11;101999.84;;;7.92;100.00
27334;BME280;14817;57.104;-2.094;2023-05-29T00:55:38;102006.69;;;7.96;100.00
27334;BME280;14817;57.104;-2.094;2023-05-29T00:58:05;102004.50;;;7.89;100.00
27334;BME280;14817;57.104;-2.094;2023-05-29T01:00:32;102002.81;;;7.88;100.00
27334;BME280;14817;57.104;-2.094;2023-05-29T01:03:03;102010.50;;;7.92;100.00
27334;BME280;14817;57.104;-2.094;2023-05-29T01:05:34;102010.88;;;7.86;100.00
27334;BME280;14817;57.104;-2.094;2023-05-29T01:08:03;102007.97;;;7.48;100.00
27334;BME280;14817;57.104;-2.094;2023-05-29T01:10:30;102011.41;;;7.50;100.00
27334;BME280;14817;57.104;-2.094;2023-05-29T01:13:12;102015.59;;;7.54;100.00
27334;BME280;14817;57.104;-2.094;2023-05-29T01:18:48;102011.50;;;7.48;100.00
27334;BME280;14817;57.104;-2.094;2023-05-29T01:24:14;102011.69;;;7.45;100.00
27334;BME280;14817;57.104;-2.094;2023-05-29T01:29:21;101999.88;;;7.35;100.00
27334;BME280;14817;57.104;-2.094;2023-05-29T01:31:50;102003.78;;;7.44;100.00
27334;BME280;14817;57.104;-2.094;2023-05-29T01:34:19;101998.91;;;7.36;100.00
27334;BME280;14817;57.104;-2.094;2023-05-29T01:36:46;101998.38;;;7.45;100.00
27334;BME280;14817;57.104;-2.094;2023-05-29T01:39:13;101991.97;;;7.33;100.00
27334;BME280;14817;57.104;-2.094;2023-05-29T01:41:40;101997.78;;;7.40;100.00
27334;BME280;14817;57.104;-2.094;2023-05-29T01:44:08;101999.31;;;7.15;100.00
27334;BME280;14817;57.104;-2.094;2023-05-29T01:46:38;102003.19;;;7.10;100.00
27334;BME280;14817;57.104;-2.094;2023-05-29T01:49:06;102000.00;;;6.74;100.00
27334;BME280;14817;57.104;-2.094;2023-05-29T01:51:34;102004.97;;;6.81;100.00
27334;BME280;14817;57.104;-2.094;2023-05-29T01:54:02;101994.03;;;6.85;100.00
27334;BME280;14817;57.104;-2.094;2023-05-29T01:56:29;102000.38;;;6.83;100.00
27334;BME280;14817;57.104;-2.094;2023-05-29T01:58:58;101999.41;;;6.69;100.00
27334;BME280;14817;57.104;-2.094;2023-05-29T02:01:27;102007.38;;;6.69;100.00
27334;BME280;14817;57.104;-2.094;2023-05-29T02:03:54;102004.91;;;6.66;100.00
27334;BME280;14817;57.104;-2.094;2023-05-29T02:06:21;102003.25;;;6.80;100.00
27334;BME280;14817;57.104;-2.094;2023-05-29T02:08:48;101999.25;;;6.72;100.00
27334;BME280;14817;57.104;-2.094;2023-05-29T02:11:15;101999.31;;;6.71;100.00
27334;BME280;14817;57.104;-2.094;2023-05-29T02:13:42;101995.97;;;6.67;100.00
27334;BME280;14817;57.104;-2.094;2023-05-29T02:16:09;101998.91;;;6.63;100.00
27334;BME280;14817;57.104;-2.094;2023-05-29T02:18:36;101996.44;;;6.60;100.00
27334;BME280;14817;57.104;-2.094;2023-05-29T02:21:05;101993.66;;;6.61;100.00
27334;BME280;14817;57.104;-2.094;2023-05-29T02:23:32;101996.72;;;6.55;100.00
27334;BME280;14817;57.104;-2.094;2023-05-29T02:25:59;101993.66;;;6.61;100.00
27334;BME280;14817;57.104;-2.094;2023-05-29T02:28:26;101999.13;;;6.74;100.00
27334;BME280;14817;57.104;-2.094;2023-05-29T02:30:53;101995.16;;;6.81;100.00
27334;BME280;14817;57.104;-2.094;2023-05-29T02:33:21;101994.22;;;6.82;100.00
27334;BME280;14817;57.104;-2.094;2023-05-29T02:35:47;102008.50;;;6.65;100.00
27334;BME280;14817;57.104;-2.094;2023-05-29T02:38:14;102003.59;;;6.73;100.00
27334;BME280;14817;57.104;-2.094;2023-05-29T02:40:41;102009.53;;;6.93;100.00
27334;BME280;14817;57.104;-2.094;2023-05-29T02:43:11;102015.56;;;6.66;100.00
27334;BME280;14817;57.104;-2.094;2023-05-29T02:45:38;102015.44;;;6.38;100.00
27334;BME280;14817;57.104;-2.094;2023-05-29T02:48:05;102016.97;;;6.42;100.00
27334;BME280;14817;57.104;-2.094;2023-05-29T02:50:33;102008.84;;;6.29;100.00
27334;BME280;14817;57.104;-2.094;2023-05-29T02:52:59;102013.81;;;6.51;100.00
27334;BME280;14817;57.104;-2.094;2023-05-29T02:55:26;102011.38;;;6.46;100.00
27334;BME280;14817;57.104;-2.094;2023-05-29T02:57:53;102018.94;;;6.54;100.00
27334;BME280;14817;57.104;-2.094;2023-05-29T03:00:22;102018.78;;;6.41;100.00
27334;BME280;14817;57.104;-2.094;2023-05-29T03:02:49;102015.72;;;6.33;100.00
27334;BME280;14817;57.104;-2.094;2023-05-29T03:05:17;102014.44;;;6.40;100.00
27334;BME280;14817;57.104;-2.094;2023-05-29T03:07:44;102013.03;;;6.49;100.00
27334;BME280;14817;57.104;-2.094;2023-05-29T03:10:11;102013.66;;;6.38;100.00
27334;BME280;14817;57.104;-2.094;2023-05-29T03:12:38;102012.28;;;6.47;100.00
27334;BME280;14817;57.104;-2.094;2023-05-29T03:15:06;102007.38;;;6.55;100.00
27334;BME280;14817;57.104;-2.094;2023-05-29T03:17:34;102014.06;;;6.46;100.00
27334;BME280;14817;57.104;-2.094;2023-05-29T03:20:09;102018.09;;;6.38;100.00
27334;BME280;14817;57.104;-2.094;2023-05-29T03:22:37;102016.56;;;6.33;100.00
27334;BME280;14817;57.104;-2.094;2023-05-29T03:25:06;102021.72;;;6.21;100.00
27334;BME280;14817;57.104;-2.094;2023-05-29T03:27:34;102017.59;;;6.31;100.00
27334;BME280;14817;57.104;-2.094;2023-05-29T03:30:09;102021.31;;;6.28;100.00
27334;BME280;14817;57.104;-2.094;2023-05-29T03:32:37;102015.31;;;6.09;100.00
27334;BME280;14817;57.104;-2.094;2023-05-29T03:35:04;102026.38;;;6.17;100.00
27334;BME280;14817;57.104;-2.094;2023-05-29T03:37:31;102024.75;;;6.15;100.00
27334;BME280;14817;57.104;-2.094;2023-05-29T03:39:58;102022.59;;;6.21;100.00
27334;BME280;14817;57.104;-2.094;2023-05-29T03:42:25;102028.25;;;6.31;100.00
27334;BME280;14817;57.104;-2.094;2023-05-29T03:44:53;102021.81;;;6.35;100.00
27334;BME280;14817;57.104;-2.094;2023-05-29T03:47:22;102031.19;;;6.26;100.00
27334;BME280;14817;57.104;-2.094;2023-05-29T03:49:51;102042.00;;;6.23;100.00
27334;BME280;14817;57.104;-2.094;2023-05-29T03:52:18;102042.84;;;6.24;100.00
27334;BME280;14817;57.104;-2.094;2023-05-29T03:54:45;102037.00;;;6.33;100.00
27334;BME280;14817;57.104;-2.094;2023-05-29T03:57:12;102044.38;;;6.44;100.00
27334;BME280;14817;57.104;-2.094;2023-05-29T03:59:38;102037.63;;;6.38;100.00
27334;BME280;14817;57.104;-2.094;2023-05-29T04:02:06;102035.25;;;6.48;100.00
27334;BME280;14817;57.104;-2.094;2023-05-29T04:04:34;102041.97;;;6.39;100.00
27334;BME280;14817;57.104;-2.094;2023-05-29T04:07:02;102039.53;;;6.50;100.00
27334;BME280;14817;57.104;-2.094;2023-05-29T04:09:28;102044.00;;;6.66;100.00
27334;BME280;14817;57.104;-2.094;2023-05-29T04:11:56;102043.13;;;6.65;100.00
27334;BME280;14817;57.104;-2.094;2023-05-29T04:14:23;102049.53;;;7.07;100.00
27334;BME280;14817;57.104;-2.094;2023-05-29T04:16:49;102052.22;;;7.36;100.00
27334;BME280;14817;57.104;-2.094;2023-05-29T04:19:16;102051.66;;;7.31;100.00
27334;BME280;14817;57.104;-2.094;2023-05-29T04:21:44;102056.25;;;7.43;100.00
27334;BME280;14817;57.104;-2.094;2023-05-29T04:24:11;102051.94;;;7.55;100.00
27334;BME280;14817;57.104;-2.094;2023-05-29T04:26:38;102058.72;;;7.32;100.00
27334;BME280;14817;57.104;-2.094;2023-05-29T04:29:08;102053.88;;;7.67;100.00
27334;BME280;14817;57.104;-2.094;2023-05-29T04:31:39;102054.72;;;7.68;100.00
27334;BME280;14817;57.104;-2.094;2023-05-29T04:34:06;102056.06;;;7.75;100.00
27334;BME280;14817;57.104;-2.094;2023-05-29T04:36:34;102059.28;;;7.80;100.00
27334;BME280;14817;57.104;-2.094;2023-05-29T04:39:09;102060.53;;;7.46;100.00
27334;BME280;14817;57.104;-2.094;2023-05-29T04:41:36;102056.34;;;7.56;100.00
27334;BME280;14817;57.104;-2.094;2023-05-29T04:44:07;102060.97;;;7.38;100.00
27334;BME280;14817;57.104;-2.094;2023-05-29T04:46:42;102066.34;;;7.81;100.00
27334;BME280;14817;57.104;-2.094;2023-05-29T04:49:11;102070.69;;;8.11;100.00
27334;BME280;14817;57.104;-2.094;2023-05-29T04:51:39;102064.25;;;7.86;100.00
27334;BME280;14817;57.104;-2.094;2023-05-29T04:54:08;102071.25;;;8.02;100.00
27334;BME280;14817;57.104;-2.094;2023-05-29T04:56:37;102076.13;;;7.95;100.00
27334;BME280;14817;57.104;-2.094;2023-05-29T04:59:08;102075.00;;;7.85;100.00
27334;BME280;14817;57.104;-2.094;2023-05-29T05:01:35;102072.69;;;8.07;100.00
27334;BME280;14817;57.104;-2.094;2023-05-29T05:04:03;102073.28;;;7.98;100.00
27334;BME280;14817;57.104;-2.094;2023-05-29T05:06:30;102069.66;;;7.99;100.00
27334;BME280;14817;57.104;-2.094;2023-05-29T05:08:57;102071.41;;;8.42;100.00
27334;BME280;14817;57.104;-2.094;2023-05-29T05:11:24;102074.69;;;9.12;100.00
27334;BME280;14817;57.104;-2.094;2023-05-29T05:13:52;102068.44;;;9.65;100.00
27334;BME280;14817;57.104;-2.094;2023-05-29T05:16:20;102070.91;;;10.05;100.00
27334;BME280;14817;57.104;-2.094;2023-05-29T05:18:47;102068.38;;;10.64;100.00
27334;BME280;14817;57.104;-2.094;2023-05-29T05:21:14;102067.94;;;10.46;100.00
27334;BME280;14817;57.104;-2.094;2023-05-29T05:23:41;102067.47;;;10.76;100.00
27334;BME280;14817;57.104;-2.094;2023-05-29T05:26:24;102067.78;;;10.60;100.00
27334;BME280;14817;57.104;-2.094;2023-05-29T05:28:53;102071.06;;;10.64;100.00
27334;BME280;14817;57.104;-2.094;2023-05-29T05:31:21;102072.41;;;11.05;100.00
27334;BME280;14817;57.104;-2.094;2023-05-29T05:33:48;102064.38;;;11.74;100.00
27334;BME280;14817;57.104;-2.094;2023-05-29T05:36:17;102066.84;;;12.43;100.00
27334;BME280;14817;57.104;-2.094;2023-05-29T05:38:44;102066.91;;;12.32;100.00
27334;BME280;14817;57.104;-2.094;2023-05-29T05:41:11;102063.09;;;12.78;100.00
27334;BME280;14817;57.104;-2.094;2023-05-29T05:43:39;102062.38;;;13.60;100.00
27334;BME280;14817;57.104;-2.094;2023-05-29T05:46:13;102059.22;;;14.36;100.00
27334;BME280;14817;57.104;-2.094;2023-05-29T05:48:41;102061.69;;;14.59;100.00
27334;BME280;14817;57.104;-2.094;2023-05-29T05:51:08;102069.91;;;13.66;100.00
27334;BME280;14817;57.104;-2.094;2023-05-29T05:53:36;102069.84;;;12.94;100.00
27334;BME280;14817;57.104;-2.094;2023-05-29T05:56:03;102067.22;;;12.82;100.00
27334;BME280;14817;57.104;-2.094;2023-05-29T05:58:31;102070.50;;;13.07;100.00
27334;BME280;14817;57.104;-2.094;2023-05-29T06:00:59;102071.28;;;13.61;100.00
27334;BME280;14817;57.104;-2.094;2023-05-29T06:03:26;102059.84;;;14.79;100.00
27334;BME280;14817;57.104;-2.094;2023-05-29T06:06:01;102061.22;;;14.54;100.00
27334;BME280;14817;57.104;-2.094;2023-05-29T06:08:28;102068.56;;;13.51;100.00
27334;BME280;14817;57.104;-2.094;2023-05-29T06:10:56;102073.84;;;13.93;100.00
27334;BME280;14817;57.104;-2.094;2023-05-29T06:13:23;102078.91;;;14.17;100.00
27334;BME280;14817;57.104;-2.094;2023-05-29T06:15:56;102076.56;;;15.21;100.00
27334;BME280;14817;57.104;-2.094;2023-05-29T06:18:23;102075.19;;;14.68;100.00
27334;BME280;14817;57.104;-2.094;2023-05-29T06:20:50;102081.13;;;15.01;100.00
27334;BME280;14817;57.104;-2.094;2023-05-29T06:23:17;102081.25;;;14.61;100.00
27334;BME280;14817;57.104;-2.094;2023-05-29T06:25:44;102084.81;;;15.77;100.00
27334;BME280;14817;57.104;-2.094;2023-05-29T06:28:11;102076.50;;;15.50;100.00
27334;BME280;14817;57.104;-2.094;2023-05-29T06:30:39;102075.25;;;15.92;100.00
27334;BME280;14817;57.104;-2.094;2023-05-29T06:33:07;102088.94;;;15.71;100.00
27334;BME280;14817;57.104;-2.094;2023-05-29T06:35:37;102088.09;;;15.14;100.00
27334;BME280;14817;57.104;-2.094;2023-05-29T06:38:04;102088.22;;;15.12;100.00
27334;BME280;14817;57.104;-2.094;2023-05-29T06:40:31;102083.69;;;14.64;100.00
27334;BME280;14817;57.104;-2.094;2023-05-29T06:42:58;102101.28;;;15.26;100.00
27334;BME280;14817;57.104;-2.094;2023-05-29T06:45:38;102090.47;;;15.17;100.00
27334;BME280;14817;57.104;-2.094;2023-05-29T06:48:06;102091.59;;;15.43;100.00
27334;BME280;14817;57.104;-2.094;2023-05-29T06:50:33;102099.72;;;15.81;100.00
27334;BME280;14817;57.104;-2.094;2023-05-29T06:53:21;102097.53;;;16.49;100.00
27334;BME280;14817;57.104;-2.094;2023-05-29T06:55:49;102100.16;;;15.19;100.00
27334;BME280;14817;57.104;-2.094;2023-05-29T06:58:16;102104.50;;;15.97;100.00
27334;BME280;14817;57.104;-2.094;2023-05-29T07:00:43;102096.06;;;15.72;100.00
27334;BME280;14817;57.104;-2.094;2023-05-29T07:03:25;102102.72;;;14.92;100.00
27334;BME280;14817;57.104;-2.094;2023-05-29T07:05:53;102101.81;;;15.40;100.00
27334;BME280;14817;57.104;-2.094;2023-05-29T07:08:20;102099.22;;;15.58;100.00
27334;BME280;14817;57.104;-2.094;2023-05-29T07:10:49;102104.69;;;15.19;100.00
27334;BME280;14817;57.104;-2.094;2023-05-29T07:13:17;102100.06;;;16.51;100.00
27334;BME280;14817;57.104;-2.094;2023-05-29T07:15:44;102098.44;;;16.86;100.00
27334;BME280;14817;57.104;-2.094;2023-05-29T07:18:12;102096.47;;;16.96;100.00
27334;BME280;14817;57.104;-2.094;2023-05-29T07:20:41;102100.16;;;17.83;100.00
27334;BME280;14817;57.104;-2.094;2023-05-29T07:23:13;102104.94;;;17.63;100.00
27334;BME280;14817;57.104;-2.094;2023-05-29T07:25:39;102100.38;;;17.64;100.00
27334;BME280;14817;57.104;-2.094;2023-05-29T07:28:06;102100.59;;;17.97;100.00
27334;BME280;14817;57.104;-2.094;2023-05-29T07:30:48;102105.31;;;18.29;100.00
27334;BME280;14817;57.104;-2.094;2023-05-29T07:33:15;102099.06;;;18.02;100.00
27334;BME280;14817;57.104;-2.094;2023-05-29T07:35:43;102099.81;;;18.12;100.00
27334;BME280;14817;57.104;-2.094;2023-05-29T07:38:10;102091.69;;;18.80;100.00
27334;BME280;14817;57.104;-2.094;2023-05-29T07:40:38;102095.34;;;17.95;100.00
27334;BME280;14817;57.104;-2.094;2023-05-29T07:43:18;102096.31;;;19.12;100.00
27334;BME280;14817;57.104;-2.094;2023-05-29T07:45:51;102085.88;;;20.12;100.00
27334;BME280;14817;57.104;-2.094;2023-05-29T07:48:19;102091.59;;;20.26;97.12
27334;BME280;14817;57.104;-2.094;2023-05-29T07:50:49;102097.13;;;18.96;100.00
27334;BME280;14817;57.104;-2.094;2023-05-29T07:53:16;102094.72;;;18.09;100.00
27334;BME280;14817;57.104;-2.094;2023-05-29T07:55:44;102084.00;;;18.75;100.00
27334;BME280;14817;57.104;-2.094;2023-05-29T07:58:12;102087.13;;;18.80;100.00
27334;BME280;14817;57.104;-2.094;2023-05-29T08:00:40;102092.66;;;18.70;100.00
27334;BME280;14817;57.104;-2.094;2023-05-29T08:03:09;102083.22;;;19.96;100.00
27334;BME280;14817;57.104;-2.094;2023-05-29T08:05:56;102091.13;;;19.66;100.00
27334;BME280;14817;57.104;-2.094;2023-05-29T08:08:24;102088.06;;;20.48;86.71
27334;BME280;14817;57.104;-2.094;2023-05-29T08:10:51;102086.88;;;21.20;84.82
27334;BME280;14817;57.104;-2.094;2023-05-29T08:13:17;102086.72;;;20.75;93.61
27334;BME280;14817;57.104;-2.094;2023-05-29T08:15:45;102093.13;;;19.89;93.21
27334;BME280;14817;57.104;-2.094;2023-05-29T08:18:13;102092.19;;;19.16;99.11
27334;BME280;14817;57.104;-2.094;2023-05-29T08:20:40;102085.69;;;20.14;87.83
27334;BME280;14817;57.104;-2.094;2023-05-29T08:23:07;102086.31;;;20.24;89.93
27334;BME280;14817;57.104;-2.094;2023-05-29T08:25:33;102085.72;;;18.76;100.00
27334;BME280;14817;57.104;-2.094;2023-05-29T08:28:00;102094.25;;;18.97;100.00
27334;BME280;14817;57.104;-2.094;2023-05-29T08:30:27;102091.63;;;20.80;92.75
27334;BME280;14817;57.104;-2.094;2023-05-29T08:32:54;102086.25;;;22.22;71.12
27334;BME280;14817;57.104;-2.094;2023-05-29T08:35:21;102084.94;;;21.06;79.85
27334;BME280;14817;57.104;-2.094;2023-05-29T08:37:49;102088.31;;;19.99;91.16
27334;BME280;14817;57.104;-2.094;2023-05-29T08:40:16;102088.09;;;20.09;100.00
27334;BME280;14817;57.104;-2.094;2023-05-29T08:42:47;102087.53;;;20.53;100.00
27334;BME280;14817;57.104;-2.094;2023-05-29T08:45:14;102083.03;;;20.37;94.42
27334;BME280;14817;57.104;-2.094;2023-05-29T08:47:42;102094.38;;;19.70;99.94
27334;BME280;14817;57.104;-2.094;2023-05-29T08:50:13;102091.78;;;20.55;94.31
27334;BME280;14817;57.104;-2.094;2023-05-29T08:52:41;102096.78;;;19.15;100.00
27334;BME280;14817;57.104;-2.094;2023-05-29T08:55:08;102101.38;;;19.31;100.00
27334;BME280;14817;57.104;-2.094;2023-05-29T08:57:36;102089.69;;;20.34;96.09
27334;BME280;14817;57.104;-2.094;2023-05-29T09:00:06;102091.69;;;20.40;100.00
27334;BME280;14817;57.104;-2.094;2023-05-29T09:02:40;102092.16;;;20.13;100.00
27334;BME280;14817;57.104;-2.094;2023-05-29T09:05:07;102092.09;;;20.29;100.00
27334;BME280;14817;57.104;-2.094;2023-05-29T09:07:36;102090.19;;;20.38;100.00
27334;BME280;14817;57.104;-2.094;2023-05-29T09:10:07;102086.69;;;21.59;86.00
27334;BME280;14817;57.104;-2.094;2023-05-29T09:12:35;102084.84;;;20.99;89.06
27334;BME280;14817;57.104;-2.094;2023-05-29T09:15:02;102078.34;;;22.27;81.60
27334;BME280;14817;57.104;-2.094;2023-05-29T09:17:31;102074.31;;;22.59;77.63
27334;BME280;14817;57.104;-2.094;2023-05-29T09:20:01;102081.81;;;20.39;93.41
27334;BME280;14817;57.104;-2.094;2023-05-29T09:22:31;102085.06;;;20.35;97.13
27334;BME280;14817;57.104;-2.094;2023-05-29T09:24:58;102076.69;;;20.13;98.30
27334;BME280;14817;57.104;-2.094;2023-05-29T09:27:26;102093.59;;;19.92;100.00
27334;BME280;14817;57.104;-2.094;2023-05-29T09:29:53;102076.38;;;20.08;100.00
27334;BME280;14817;57.104;-2.094;2023-05-29T09:32:20;102078.34;;;19.67;100.00
27334;BME280;14817;57.104;-2.094;2023-05-29T09:34:47;102074.81;;;20.14;100.00
27334;BME280;14817;57.104;-2.094;2023-05-29T09:37:14;102075.25;;;19.94;100.00
27334;BME280;14817;57.104;-2.094;2023-05-29T09:39:45;102079.88;;;19.77;96.08
27334;BME280;14817;57.104;-2.094;2023-05-29T09:42:13;102077.78;;;19.96;100.00
27334;BME280;14817;57.104;-2.094;2023-05-29T09:44:41;102080.25;;;19.58;100.00
27334;BME280;14817;57.104;-2.094;2023-05-29T09:47:08;102077.75;;;20.67;90.39
27334;BME280;14817;57.104;-2.094;2023-05-29T09:49:40;102065.03;;;19.96;94.03
27334;BME280;14817;57.104;-2.094;2023-05-29T09:52:07;102072.72;;;20.55;100.00
27334;BME280;14817;57.104;-2.094;2023-05-29T09:54:35;102065.38;;;20.87;98.09
27334;BME280;14817;57.104;-2.094;2023-05-29T09:57:03;102068.19;;;20.16;100.00
27334;BME280;14817;57.104;-2.094;2023-05-29T09:59:33;102064.31;;;19.55;100.00
27334;BME280;14817;57.104;-2.094;2023-05-29T10:02:02;102071.28;;;19.41;98.92
27334;BME280;14817;57.104;-2.094;2023-05-29T10:04:34;102068.25;;;20.00;98.33
27334;BME280;14817;57.104;-2.094;2023-05-29T10:07:08;102066.50;;;20.07;95.61
27334;BME280;14817;57.104;-2.094;2023-05-29T10:09:42;102070.50;;;20.28;100.00
27334;BME280;14817;57.104;-2.094;2023-05-29T10:12:11;102077.94;;;20.03;96.71
27334;BME280;14817;57.104;-2.094;2023-05-29T10:14:39;102075.97;;;21.58;81.54
27334;BME280;14817;57.104;-2.094;2023-05-29T10:17:12;102068.00;;;20.49;87.39
27334;BME280;14817;57.104;-2.094;2023-05-29T10:19:40;102075.44;;;20.55;90.74
27334;BME280;14817;57.104;-2.094;2023-05-29T10:22:09;102068.06;;;21.10;88.27
27334;BME280;14817;57.104;-2.094;2023-05-29T10:24:37;102063.72;;;20.24;87.36
27334;BME280;14817;57.104;-2.094;2023-05-29T10:27:04;102066.59;;;19.10;100.00
27334;BME280;14817;57.104;-2.094;2023-05-29T10:29:39;102073.19;;;19.32;100.00
27334;BME280;14817;57.104;-2.094;2023-05-29T10:37:42;102069.81;;;19.14;100.00
27334;BME280;14817;57.104;-2.094;2023-05-29T10:40:11;102066.69;;;19.50;100.00
27334;BME280;14817;57.104;-2.094;2023-05-29T10:50:38;102076.25;;;19.29;100.00
27334;BME280;14817;57.104;-2.094;2023-05-29T10:53:18;102076.56;;;18.61;100.00
27334;BME280;14817;57.104;-2.094;2023-05-29T10:55:50;102075.56;;;19.11;100.00
27334;BME280;14817;57.104;-2.094;2023-05-29T10:58:22;102077.56;;;19.50;100.00
27334;BME280;14817;57.104;-2.094;2023-05-29T11:00:53;102078.75;;;19.39;100.00
27334;BME280;14817;57.104;-2.094;2023-05-29T11:03:23;102076.25;;;19.13;100.00
27334;BME280;14817;57.104;-2.094;2023-05-29T11:05:58;102065.75;;;18.93;100.00
27334;BME280;14817;57.104;-2.094;2023-05-29T11:08:33;102069.47;;;18.92;100.00
27334;BME280;14817;57.104;-2.094;2023-05-29T11:11:03;102077.97;;;18.89;100.00
27334;BME280;14817;57.104;-2.094;2023-05-29T11:13:34;102078.63;;;18.83;100.00
27334;BME280;14817;57.104;-2.094;2023-05-29T11:18:48;102076.56;;;18.77;100.00
27334;BME280;14817;57.104;-2.094;2023-05-29T11:26:45;102077.78;;;18.15;100.00
27334;BME280;14817;57.104;-2.094;2023-05-29T11:29:14;102070.56;;;17.90;100.00
27334;BME280;14817;57.104;-2.094;2023-05-29T11:31:41;102071.38;;;18.25;100.00
27334;BME280;14817;57.104;-2.094;2023-05-29T11:34:14;102072.28;;;18.58;100.00
27334;BME280;14817;57.104;-2.094;2023-05-29T11:36:42;102077.34;;;18.45;100.00
27334;BME280;14817;57.104;-2.094;2023-05-29T11:39:10;102083.50;;;18.55;100.00
27334;BME280;14817;57.104;-2.094;2023-05-29T11:41:37;102079.75;;;18.48;100.00
27334;BME280;14817;57.104;-2.094;2023-05-29T11:44:04;102080.72;;;17.88;100.00
27334;BME280;14817;57.104;-2.094;2023-05-29T11:46:32;102084.84;;;17.74;100.00
27334;BME280;14817;57.104;-2.094;2023-05-29T11:49:01;102081.63;;;18.05;100.00
27334;BME280;14817;57.104;-2.094;2023-05-29T11:51:28;102081.28;;;17.39;100.00
27334;BME280;14817;57.104;-2.094;2023-05-29T11:53:55;102084.06;;;17.29;100.00
27334;BME280;14817;57.104;-2.094;2023-05-29T11:56:39;102086.00;;;17.19;100.00
27334;BME280;14817;57.104;-2.094;2023-05-29T11:59:10;102079.28;;;17.75;100.00
27334;BME280;14817;57.104;-2.094;2023-05-29T12:01:37;102078.09;;;17.26;100.00
27334;BME280;14817;57.104;-2.094;2023-05-29T12:04:14;102079.00;;;17.34;100.00
27334;BME280;14817;57.104;-2.094;2023-05-29T12:06:40;102085.13;;;17.37;100.00
27334;BME280;14817;57.104;-2.094;2023-05-29T12:09:08;102079.44;;;17.22;100.00
27334;BME280;14817;57.104;-2.094;2023-05-29T12:11:35;102069.69;;;17.55;100.00
27334;BME280;14817;57.104;-2.094;2023-05-29T12:14:02;102079.56;;;17.38;100.00
27334;BME280;14817;57.104;-2.094;2023-05-29T12:16:31;102076.47;;;17.59;100.00
27334;BME280;14817;57.104;-2.094;2023-05-29T12:19:00;102085.44;;;17.60;100.00
27334;BME280;14817;57.104;-2.094;2023-05-29T12:21:28;102089.75;;;17.70;100.00
27334;BME280;14817;57.104;-2.094;2023-05-29T12:23:55;102090.59;;;17.19;100.00
27334;BME280;14817;57.104;-2.094;2023-05-29T12:26:39;102091.41;;;16.93;100.00
27334;BME280;14817;57.104;-2.094;2023-05-29T12:29:06;102095.38;;;16.53;100.00
27334;BME280;14817;57.104;-2.094;2023-05-29T12:31:33;102095.78;;;16.76;100.00
27334;BME280;14817;57.104;-2.094;2023-05-29T12:34:11;102088.19;;;16.62;100.00
27334;BME280;14817;57.104;-2.094;2023-05-29T12:36:42;102107.19;;;16.52;100.00
27334;BME280;14817;57.104;-2.094;2023-05-29T12:39:12;102102.84;;;16.41;100.00
27334;BME280;14817;57.104;-2.094;2023-05-29T12:41:40;102108.47;;;16.30;100.00
27334;BME280;14817;57.104;-2.094;2023-05-29T12:44:07;102101.69;;;16.44;100.00
27334;BME280;14817;57.104;-2.094;2023-05-29T12:46:40;102101.00;;;16.42;100.00
27334;BME280;14817;57.104;-2.094;2023-05-29T12:49:17;102106.25;;;16.43;100.00
27334;BME280;14817;57.104;-2.094;2023-05-29T12:51:47;102100.94;;;16.69;100.00
27334;BME280;14817;57.104;-2.094;2023-05-29T12:54:15;102104.13;;;16.65;100.00
27334;BME280;14817;57.104;-2.094;2023-05-29T12:56:42;102104.88;;;16.39;100.00
27334;BME280;14817;57.104;-2.094;2023-05-29T12:59:10;102110.72;;;16.07;100.00
27334;BME280;14817;57.104;-2.094;2023-05-29T13:01:38;102108.41;;;16.12;100.00
27334;BME280;14817;57.104;-2.094;2023-05-29T13:04:05;102111.34;;;15.91;100.00
27334;BME280;14817;57.104;-2.094;2023-05-29T13:06:42;102117.81;;;16.08;100.00
27334;BME280;14817;57.104;-2.094;2023-05-29T13:09:09;102115.59;;;15.93;100.00
27334;BME280;14817;57.104;-2.094;2023-05-29T13:11:37;102124.94;;;16.09;100.00
27334;BME280;14817;57.104;-2.094;2023-05-29T13:14:04;102126.75;;;16.46;100.00